createdAt,value
2023-02-11T00:01:33.747Z,-7.51
2023-02-11T00:04:01.827Z,-7.74
2023-02-11T00:06:30.145Z,-7.71
2023-02-11T00:08:57.405Z,-7.67
2023-02-11T00:11:31.496Z,-7.73
2023-02-11T00:14:03.431Z,-7.91
2023-02-11T00:16:32.884Z,-7.95
2023-02-11T00:19:05.632Z,-7.83
2023-02-11T00:21:32.457Z,-7.81
2023-02-11T00:24:02.383Z,-7.69
2023-02-11T00:26:34.444Z,-7.82
2023-02-11T00:29:02.138Z,-7.71
2023-02-11T00:31:29.320Z,-7.73
2023-02-11T00:33:56.021Z,-7.85
2023-02-11T00:36:25.889Z,-8.10
2023-02-11T00:38:53.938Z,-8.09
2023-02-11T00:41:21.907Z,-7.78
2023-02-11T00:43:51.196Z,-7.85
2023-02-11T00:46:22.802Z,-8.03
2023-02-11T00:48:51.785Z,-7.82
2023-02-11T00:51:18.464Z,-7.96
2023-02-11T00:53:47.273Z,-8.00
2023-02-11T00:56:16.104Z,-7.77
2023-02-11T00:58:42.701Z,-8.12
2023-02-11T01:01:12.676Z,-8.20
2023-02-11T01:03:39.803Z,-8.20
2023-02-11T01:06:08.517Z,-8.11
2023-02-11T01:08:35.276Z,-8.12
2023-02-11T01:11:07.693Z,-8.38
2023-02-11T01:13:37.319Z,-8.32
2023-02-11T01:16:10.794Z,-8.32
2023-02-11T01:18:40.208Z,-8.32
2023-02-11T01:21:07.747Z,-8.17
2023-02-11T01:23:34.505Z,-8.10
2023-02-11T01:26:03.651Z,-8.24
2023-02-11T01:28:31.167Z,-8.23
2023-02-11T01:31:00.094Z,-8.11
2023-02-11T01:33:26.748Z,-8.35
2023-02-11T01:35:53.708Z,-8.35
2023-02-11T01:38:26.015Z,-8.47
2023-02-11T01:41:01.135Z,-8.45
2023-02-11T01:43:31.182Z,-8.50
2023-02-11T01:46:20.767Z,-8.56
2023-02-11T01:49:02.776Z,-8.59
2023-02-11T01:51:50.763Z,-8.48
2023-02-11T01:54:40.542Z,-8.40
2023-02-11T01:57:24.729Z,-8.38
2023-02-11T02:00:12.916Z,-8.39
2023-02-11T02:02:50.594Z,-8.27
2023-02-11T02:05:30.630Z,-8.43
2023-02-11T02:08:19.121Z,-8.40
2023-02-11T02:10:48.405Z,-8.27
2023-02-11T02:13:15.322Z,-8.33
2023-02-11T02:15:50.375Z,-8.57
2023-02-11T02:18:48.949Z,-8.64
2023-02-11T02:21:30.977Z,-8.57
2023-02-11T02:24:26.496Z,-8.58
2023-02-11T02:27:30.961Z,-8.54
2023-02-11T02:30:17.685Z,-8.46
2023-02-11T02:33:22.959Z,-8.40
2023-02-11T02:36:12.829Z,-8.50
2023-02-11T02:38:49.025Z,-8.61
2023-02-11T02:41:19.657Z,-8.49
2023-02-11T02:43:49.430Z,-8.53
2023-02-11T02:46:23.739Z,-8.53
2023-02-11T02:48:52.730Z,-8.58
2023-02-11T02:51:56.903Z,-8.52
2023-02-11T02:54:29.517Z,-8.38
2023-02-11T02:57:04.541Z,-8.40
2023-02-11T02:59:37.351Z,-8.23
2023-02-11T03:02:29.181Z,-7.90
2023-02-11T03:05:11.935Z,-7.93
2023-02-11T03:08:18.393Z,-8.01
2023-02-11T03:10:51.098Z,-7.89
2023-02-11T03:13:21.697Z,-8.03
2023-02-11T03:15:52.454Z,-8.06
2023-02-11T03:18:22.723Z,-8.36
2023-02-11T03:20:53.326Z,-8.39
2023-02-11T03:23:32.931Z,-8.33
2023-02-11T03:26:05.224Z,-8.43
2023-02-11T03:28:43.029Z,-8.33
2023-02-11T03:31:42.437Z,-8.43
2023-02-11T03:34:23.500Z,-8.34
2023-02-11T03:37:19.699Z,-8.21
2023-02-11T03:39:52.714Z,-8.20
2023-02-11T03:42:20.258Z,-8.18
2023-02-11T03:44:53.558Z,-8.26
2023-02-11T03:47:25.313Z,-8.34
2023-02-11T03:49:55.479Z,-8.29
2023-02-11T03:52:24.722Z,-8.51
2023-02-11T03:54:56.084Z,-8.58
2023-02-11T03:57:22.734Z,-8.77
2023-02-11T04:00:01.409Z,-8.77
2023-02-11T04:02:32.008Z,-8.84
2023-02-11T04:04:59.059Z,-8.87
2023-02-11T04:07:26.390Z,-8.88
2023-02-11T04:09:53.821Z,-8.99
2023-02-11T04:12:20.561Z,-9.04
2023-02-11T04:14:47.231Z,-9.00
2023-02-11T04:17:16.216Z,-8.77
2023-02-11T04:19:42.839Z,-8.74
2023-02-11T04:22:11.877Z,-8.71
2023-02-11T04:24:38.600Z,-8.78
2023-02-11T04:27:05.209Z,-8.88
2023-02-11T04:29:35.047Z,-8.92
2023-02-11T04:32:04.064Z,-8.59
2023-02-11T04:34:30.817Z,-8.79
2023-02-11T04:36:57.452Z,-9.01
2023-02-11T04:39:24.079Z,-9.03
2023-02-11T04:41:50.670Z,-9.04
2023-02-11T04:44:17.276Z,-9.13
2023-02-11T04:46:46.330Z,-8.96
2023-02-11T04:49:16.896Z,-9.06
2023-02-11T04:51:48.196Z,-9.26
2023-02-11T04:54:16.115Z,-9.14
2023-02-11T04:56:42.715Z,-9.24
2023-02-11T04:59:09.373Z,-9.25
2023-02-11T05:01:36.030Z,-9.20
2023-02-11T05:04:02.785Z,-9.24
2023-02-11T05:06:29.428Z,-9.01
2023-02-11T05:08:56.017Z,-9.26
2023-02-11T05:11:24.023Z,-9.09
2023-02-11T05:13:50.984Z,-9.15
2023-02-11T05:16:18.279Z,-9.27
2023-02-11T05:18:45.365Z,-9.39
2023-02-11T05:21:18.213Z,-9.31
2023-02-11T05:23:45.839Z,-9.36
2023-02-11T05:26:15.030Z,-9.27
2023-02-11T05:28:42.175Z,-9.09
2023-02-11T05:31:09.183Z,-9.19
2023-02-11T05:33:35.892Z,-9.19
2023-02-11T05:36:08.851Z,-9.31
2023-02-11T05:38:36.407Z,-9.38
2023-02-11T05:41:04.694Z,-9.05
2023-02-11T05:43:31.792Z,-9.11
2023-02-11T05:45:58.855Z,-8.86
2023-02-11T05:48:25.493Z,-8.97
2023-02-11T05:50:52.571Z,-8.64
2023-02-11T05:53:19.145Z,-8.75
2023-02-11T05:55:46.264Z,-8.62
2023-02-11T05:58:13.634Z,-8.79
2023-02-11T06:00:40.432Z,-8.79
2023-02-11T06:03:07.082Z,-8.90
2023-02-11T06:05:34.001Z,-9.00
2023-02-11T06:08:03.136Z,-8.88
2023-02-11T06:10:31.991Z,-8.82
2023-02-11T06:12:58.614Z,-8.72
2023-02-11T06:15:25.429Z,-8.69
2023-02-11T06:17:52.480Z,-8.56
2023-02-11T06:20:19.687Z,-8.29
2023-02-11T06:22:48.519Z,-8.33
2023-02-11T06:25:15.185Z,-8.20
2023-02-11T06:27:44.201Z,-8.05
2023-02-11T06:30:11.471Z,-7.85
2023-02-11T06:32:46.129Z,-7.54
2023-02-11T06:35:14.616Z,-7.16
2023-02-11T06:37:42.132Z,-6.97
2023-02-11T06:40:09.733Z,-6.78
2023-02-11T06:42:38.790Z,-6.53
2023-02-11T06:45:06.263Z,-6.30
2023-02-11T06:47:32.967Z,-6.18
2023-02-11T06:49:59.935Z,-6.03
2023-02-11T06:52:26.559Z,-5.83
2023-02-11T06:54:53.207Z,-5.62
2023-02-11T06:57:19.880Z,-5.58
2023-02-11T06:59:47.160Z,-5.31
2023-02-11T07:02:13.797Z,-5.09
2023-02-11T07:04:41.189Z,-4.97
2023-02-11T07:07:07.862Z,-4.96
2023-02-11T07:09:34.449Z,-4.86
2023-02-11T07:12:01.008Z,-4.75
2023-02-11T07:14:27.574Z,-4.56
2023-02-11T07:16:54.155Z,-4.77
2023-02-11T07:19:21.082Z,-4.50
2023-02-11T07:21:48.782Z,-4.33
2023-02-11T07:24:15.434Z,-4.23
2023-02-11T07:26:42.062Z,-4.10
2023-02-11T07:29:08.677Z,-4.09
2023-02-11T07:31:35.340Z,-4.12
2023-02-11T07:34:02.613Z,-3.91
2023-02-11T07:36:32.030Z,-3.75
2023-02-11T07:38:59.021Z,-3.38
2023-02-11T07:41:26.677Z,-3.17
2023-02-11T07:43:53.411Z,-2.83
2023-02-11T07:46:25.311Z,-2.34
2023-02-11T07:48:52.735Z,-2.36
2023-02-11T07:51:27.904Z,-1.94
2023-02-11T07:53:56.372Z,-1.52
2023-02-11T07:56:24.064Z,-1.34
2023-02-11T07:58:50.905Z,-1.11
2023-02-11T08:01:25.314Z,-0.82
2023-02-11T08:03:53.046Z,-0.76
2023-02-11T08:06:21.310Z,-1.04
2023-02-11T08:08:48.216Z,-0.70
2023-02-11T08:11:26.610Z,-0.67
2023-02-11T08:13:55.424Z,-0.32
2023-02-11T08:16:34.006Z,-0.21
2023-02-11T08:19:04.686Z,-0.30
2023-02-11T08:21:31.151Z,-0.20
2023-02-11T08:23:57.892Z,-0.12
2023-02-11T08:26:31.897Z,0.34
2023-02-11T08:28:58.911Z,0.53
2023-02-11T08:31:31.255Z,1.06
2023-02-11T08:33:58.287Z,0.97
2023-02-11T08:36:29.090Z,1.40
2023-02-11T08:39:16.096Z,1.48
2023-02-11T08:41:44.623Z,1.11
2023-02-11T08:44:11.713Z,1.59
2023-02-11T08:46:38.306Z,1.51
2023-02-11T08:49:05.101Z,1.68
2023-02-11T08:51:33.691Z,1.64
2023-02-11T08:54:00.874Z,1.66
2023-02-11T08:56:28.260Z,1.74
2023-02-11T08:58:55.120Z,1.29
2023-02-11T09:01:27.308Z,1.85
2023-02-11T09:03:54.316Z,1.88
2023-02-11T09:06:22.562Z,2.00
2023-02-11T09:08:51.385Z,2.45
2023-02-11T09:11:20.988Z,2.60
2023-02-11T09:13:47.622Z,2.80
2023-02-11T09:16:35.782Z,2.94
2023-02-11T09:19:04.056Z,3.47
2023-02-11T09:21:31.503Z,3.68
2023-02-11T09:23:58.077Z,3.39
2023-02-11T09:26:27.259Z,4.05
2023-02-11T09:28:54.394Z,4.50
2023-02-11T09:31:23.687Z,4.35
2023-02-11T09:33:53.558Z,5.28
2023-02-11T09:36:26.399Z,6.15
2023-02-11T09:38:53.610Z,7.46
2023-02-11T09:41:23.139Z,7.89
2023-02-11T09:43:53.759Z,8.08
2023-02-11T09:46:22.025Z,10.13
2023-02-11T09:48:50.634Z,10.45
2023-02-11T09:51:26.086Z,10.97
2023-02-11T09:54:00.468Z,11.97
2023-02-11T09:56:28.359Z,11.48
2023-02-11T09:58:54.972Z,10.61
2023-02-11T10:01:43.442Z,10.62
2023-02-11T10:04:34.907Z,12.19
2023-02-11T10:07:28.588Z,12.80
2023-02-11T10:10:00.924Z,11.76
2023-02-11T10:12:53.145Z,11.22
2023-02-11T10:15:28.645Z,10.97
2023-02-11T10:18:19.673Z,9.58
2023-02-11T10:21:31.090Z,9.87
2023-02-11T10:24:03.470Z,7.81
2023-02-11T10:26:31.862Z,7.38
2023-02-11T10:29:05.514Z,7.10
2023-02-11T10:31:42.358Z,7.48
2023-02-11T10:34:14.003Z,7.21
2023-02-11T10:36:43.356Z,6.14
2023-02-11T10:39:16.510Z,7.33
2023-02-11T10:41:53.075Z,6.82
2023-02-11T10:44:29.460Z,7.66
2023-02-11T10:46:58.070Z,7.85
2023-02-11T10:49:45.084Z,8.22
2023-02-11T10:52:25.980Z,8.72
2023-02-11T10:54:57.931Z,9.61
2023-02-11T10:57:38.153Z,9.17
2023-02-11T11:00:20.666Z,8.95
2023-02-11T11:02:55.695Z,9.47
2023-02-11T11:05:29.382Z,7.81
2023-02-11T11:08:03.955Z,7.65
2023-02-11T11:10:43.948Z,9.34
2023-02-11T11:13:32.378Z,9.02
2023-02-11T11:16:07.454Z,9.59
2023-02-11T11:18:34.288Z,10.75
2023-02-11T11:21:05.792Z,11.12
2023-02-11T11:23:34.606Z,9.71
2023-02-11T11:26:06.721Z,9.31
2023-02-11T11:28:39.283Z,9.80
2023-02-11T11:31:14.735Z,10.90
2023-02-11T11:33:44.580Z,11.81
2023-02-11T11:36:19.879Z,10.13
2023-02-11T11:38:54.334Z,9.54
2023-02-11T11:41:25.471Z,8.97
2023-02-11T11:44:01.100Z,7.20
2023-02-11T11:46:40.473Z,8.26
2023-02-11T11:49:29.862Z,9.18
2023-02-11T11:52:27.085Z,9.30
2023-02-11T11:55:19.505Z,8.76
2023-02-11T11:57:46.248Z,8.45
2023-02-11T12:00:20.573Z,8.24
2023-02-11T12:03:13.103Z,8.04
2023-02-11T12:06:04.218Z,9.32
2023-02-11T12:08:46.046Z,9.98
2023-02-11T12:11:26.077Z,9.81
2023-02-11T12:13:58.411Z,11.20
2023-02-11T12:16:42.146Z,10.69
2023-02-11T12:19:36.100Z,11.91
2023-02-11T12:22:11.637Z,10.88
2023-02-11T12:24:59.501Z,12.32
2023-02-11T12:28:06.197Z,11.58
2023-02-11T12:31:21.110Z,10.24
2023-02-11T12:34:10.177Z,9.11
2023-02-11T12:36:43.121Z,9.33
2023-02-11T12:39:40.597Z,8.70
2023-02-11T12:42:35.196Z,8.67
2023-02-11T12:45:18.665Z,8.41
2023-02-11T12:48:00.325Z,9.09
2023-02-11T12:50:45.734Z,8.92
2023-02-11T12:53:44.585Z,8.56
2023-02-11T12:56:21.334Z,9.13
2023-02-11T12:58:50.632Z,9.14
2023-02-11T13:01:29.708Z,9.60
2023-02-11T13:04:08.514Z,8.75
2023-02-11T13:06:46.652Z,9.72
2023-02-11T13:09:21.083Z,9.22
2023-02-11T13:11:54.739Z,10.42
2023-02-11T13:14:35.233Z,10.63
2023-02-11T13:17:12.996Z,10.34
2023-02-11T13:19:49.171Z,9.92
2023-02-11T13:22:39.892Z,9.63
2023-02-11T13:25:36.388Z,10.02
2023-02-11T13:28:18.025Z,9.76
2023-02-11T13:30:52.464Z,9.41
2023-02-11T13:33:30.647Z,9.23
2023-02-11T13:35:57.161Z,9.29
2023-02-11T13:38:31.847Z,9.40
2023-02-11T13:41:06.123Z,9.45
2023-02-11T13:43:35.179Z,9.69
2023-02-11T13:46:06.676Z,9.02
2023-02-11T13:48:37.167Z,9.30
2023-02-11T13:51:05.805Z,8.85
2023-02-11T13:53:45.720Z,9.22
2023-02-11T13:56:40.061Z,8.76
2023-02-11T13:59:27.471Z,8.49
2023-02-11T14:02:14.011Z,7.81
2023-02-11T14:05:24.176Z,7.46
2023-02-11T14:08:29.614Z,7.35
2023-02-11T14:11:08.703Z,6.83
2023-02-11T14:13:47.288Z,6.79
2023-02-11T14:16:22.637Z,6.70
2023-02-11T14:18:54.724Z,6.46
2023-02-11T14:21:27.458Z,6.59
2023-02-11T14:24:14.398Z,6.61
2023-02-11T14:26:56.807Z,6.51
2023-02-11T14:29:54.221Z,6.46
2023-02-11T14:32:38.382Z,6.33
2023-02-11T14:35:36.037Z,6.13
2023-02-11T14:38:34.296Z,6.22
2023-02-11T14:41:19.786Z,6.41
2023-02-11T14:43:51.537Z,6.54
2023-02-11T14:46:19.813Z,6.69
2023-02-11T14:48:53.730Z,6.57
2023-02-11T14:51:23.458Z,6.69
2023-02-11T14:53:53.033Z,6.79
2023-02-11T14:56:26.519Z,6.55
2023-02-11T14:58:54.647Z,6.71
2023-02-11T15:01:28.523Z,6.46
2023-02-11T15:03:56.673Z,6.65
2023-02-11T15:06:39.292Z,6.62
2023-02-11T15:09:05.787Z,6.52
2023-02-11T15:11:39.633Z,6.57
2023-02-11T15:14:27.331Z,6.50
2023-02-11T15:16:57.437Z,6.32
2023-02-11T15:19:34.469Z,6.25
2023-02-11T15:22:06.937Z,6.16
2023-02-11T15:24:35.529Z,6.08
2023-02-11T15:27:14.598Z,6.05
2023-02-11T15:29:46.678Z,5.85
2023-02-11T15:32:18.616Z,5.79
2023-02-11T15:34:46.508Z,5.71
2023-02-11T15:37:29.897Z,5.66
2023-02-11T15:40:12.713Z,5.61
2023-02-11T15:42:52.075Z,5.72
2023-02-11T15:45:29.144Z,5.72
2023-02-11T15:48:21.920Z,5.64
2023-02-11T15:50:55.124Z,5.42
2023-02-11T15:53:27.916Z,5.20
2023-02-11T15:56:04.190Z,5.11
2023-02-11T15:58:37.829Z,5.01
2023-02-11T16:01:04.863Z,5.07
2023-02-11T16:03:33.059Z,4.79
2023-02-11T16:06:25.771Z,4.65
2023-02-11T16:08:58.409Z,4.64
2023-02-11T16:11:38.388Z,4.59
2023-02-11T16:14:23.247Z,4.46
2023-02-11T16:16:53.192Z,4.26
2023-02-11T16:19:24.174Z,4.04
2023-02-11T16:21:53.163Z,3.98
2023-02-11T16:24:24.483Z,3.72
2023-02-11T16:26:55.015Z,3.69
2023-02-11T16:29:26.285Z,3.69
2023-02-11T16:31:54.510Z,3.94
2023-02-11T16:34:23.438Z,4.02
2023-02-11T16:36:51.622Z,4.08
2023-02-11T16:39:22.469Z,4.03
2023-02-11T16:41:52.305Z,4.00
2023-02-11T16:44:19.103Z,4.04
2023-02-11T16:46:46.078Z,3.94
2023-02-11T16:49:26.451Z,3.86
2023-02-11T16:51:56.901Z,3.82
2023-02-11T16:54:23.423Z,3.79
2023-02-11T16:56:50.336Z,3.49
2023-02-11T16:59:16.897Z,3.36
2023-02-11T17:01:44.815Z,3.16
2023-02-11T17:04:24.797Z,3.04
2023-02-11T17:06:51.717Z,2.91
2023-02-11T17:09:21.145Z,2.90
2023-02-11T17:11:48.200Z,2.79
2023-02-11T17:14:15.403Z,2.70
2023-02-11T17:16:42.409Z,2.50
2023-02-11T17:19:12.993Z,2.57
2023-02-11T17:21:47.419Z,2.53
2023-02-11T17:24:15.095Z,2.60
2023-02-11T17:26:43.267Z,2.57
2023-02-11T17:29:12.145Z,2.62
2023-02-11T17:31:39.642Z,2.48
2023-02-11T17:34:06.989Z,2.42
2023-02-11T17:36:34.014Z,2.39
2023-02-11T17:39:01.417Z,2.27
2023-02-11T17:41:29.048Z,2.38
2023-02-11T17:43:59.382Z,2.55
2023-02-11T17:46:28.265Z,2.63
2023-02-11T17:48:55.878Z,2.66
2023-02-11T17:51:28.340Z,2.63
2023-02-11T17:53:57.685Z,2.75
2023-02-11T17:56:24.442Z,2.75
2023-02-11T17:58:52.257Z,2.77
2023-02-11T18:01:19.693Z,2.89
2023-02-11T18:03:46.400Z,2.84
2023-02-11T18:06:13.235Z,2.87
2023-02-11T18:08:41.749Z,2.91
2023-02-11T18:11:12.827Z,2.89
2023-02-11T18:13:39.452Z,2.88
2023-02-11T18:16:08.492Z,2.96
2023-02-11T18:18:35.651Z,3.14
2023-02-11T18:21:04.058Z,3.18
2023-02-11T18:23:30.692Z,3.25
2023-02-11T18:25:57.271Z,3.25
2023-02-11T18:28:24.024Z,3.24
2023-02-11T18:30:57.478Z,3.13
2023-02-11T18:33:24.285Z,3.17
2023-02-11T18:35:51.139Z,3.12
2023-02-11T18:38:18.697Z,3.14
2023-02-11T18:40:50.386Z,3.04
2023-02-11T18:43:17.565Z,2.99
2023-02-11T18:45:45.301Z,3.09
2023-02-11T18:48:12.597Z,3.12
2023-02-11T18:50:44.538Z,3.18
2023-02-11T18:53:12.951Z,3.14
2023-02-11T18:55:41.228Z,3.17
2023-02-11T18:58:07.903Z,3.10
2023-02-11T19:00:36.178Z,2.98
2023-02-11T19:03:03.313Z,2.93
2023-02-11T19:05:33.375Z,2.90
2023-02-11T19:08:01.098Z,2.91
2023-02-11T19:10:28.018Z,2.85
2023-02-11T19:12:56.421Z,2.78
2023-02-11T19:15:23.081Z,2.63
2023-02-11T19:17:49.783Z,2.57
2023-02-11T19:20:17.011Z,2.67
2023-02-11T19:22:44.125Z,2.75
2023-02-11T19:25:12.016Z,2.76
2023-02-11T19:27:41.748Z,2.72
2023-02-11T19:30:10.035Z,2.68
2023-02-11T19:32:36.666Z,2.77
2023-02-11T19:35:03.979Z,2.84
2023-02-11T19:37:30.572Z,2.92
2023-02-11T19:39:57.137Z,3.01
2023-02-11T19:42:26.525Z,3.02
2023-02-11T19:44:53.965Z,3.04
2023-02-11T19:47:26.733Z,3.11
2023-02-11T19:49:53.970Z,3.03
2023-02-11T19:52:20.772Z,2.96
2023-02-11T19:54:47.396Z,3.04
2023-02-11T19:57:14.039Z,2.98
2023-02-11T19:59:40.694Z,2.89
2023-02-11T20:02:08.076Z,2.95
2023-02-11T20:04:34.705Z,3.12
2023-02-11T20:07:01.314Z,3.15
2023-02-11T20:09:29.085Z,3.32
2023-02-11T20:11:55.680Z,3.31
2023-02-11T20:14:22.581Z,3.06
2023-02-11T20:16:50.271Z,3.05
2023-02-11T20:19:19.998Z,2.95
2023-02-11T20:21:48.380Z,2.98
2023-02-11T20:24:17.599Z,3.00
2023-02-11T20:26:45.824Z,3.07
2023-02-11T20:29:12.511Z,3.09
2023-02-11T20:31:39.305Z,3.06
2023-02-11T20:34:05.952Z,2.96
2023-02-11T20:36:35.725Z,3.07
2023-02-11T20:39:04.885Z,2.94
2023-02-11T20:41:38.759Z,2.85
2023-02-11T20:44:07.985Z,2.79
2023-02-11T20:46:37.385Z,2.66
2023-02-11T20:49:04.056Z,2.57
2023-02-11T20:51:33.565Z,2.53
2023-02-11T20:54:01.164Z,2.47
2023-02-11T20:56:30.457Z,2.43
2023-02-11T20:58:58.763Z,2.53
2023-02-11T21:01:28.946Z,2.54
2023-02-11T21:04:04.706Z,2.53
2023-02-11T21:06:34.782Z,2.41
2023-02-11T21:09:02.200Z,2.47
2023-02-11T21:11:28.807Z,2.38
2023-02-11T21:13:55.458Z,2.45
2023-02-11T21:16:22.249Z,2.48
2023-02-11T21:18:50.317Z,2.85
2023-02-11T21:21:18.719Z,2.91
2023-02-11T21:23:46.263Z,3.16
2023-02-11T21:26:13.765Z,3.37
2023-02-11T21:28:41.232Z,3.64
2023-02-11T21:31:08.869Z,3.68
2023-02-11T21:33:35.990Z,3.73
2023-02-11T21:36:06.186Z,3.79
2023-02-11T21:38:32.881Z,4.16
2023-02-11T21:41:04.254Z,4.28
2023-02-11T21:43:31.434Z,4.40
2023-02-11T21:45:58.038Z,4.60
2023-02-11T21:48:25.784Z,4.49
2023-02-11T21:50:53.595Z,4.59
2023-02-11T21:53:20.405Z,4.55
2023-02-11T21:55:47.175Z,4.52
2023-02-11T21:58:14.406Z,4.56
2023-02-11T22:00:41.051Z,4.48
2023-02-11T22:03:07.714Z,4.39
2023-02-11T22:05:34.330Z,4.34
2023-02-11T22:08:00.957Z,4.34
2023-02-11T22:10:27.565Z,4.25
2023-02-11T22:12:54.128Z,4.28
2023-02-11T22:15:20.702Z,4.19
2023-02-11T22:17:47.371Z,3.97
2023-02-11T22:20:14.025Z,4.00
2023-02-11T22:22:40.613Z,4.06
2023-02-11T22:25:07.622Z,4.04
2023-02-11T22:27:34.240Z,3.72
2023-02-11T22:30:00.817Z,3.79
2023-02-11T22:32:27.391Z,3.87
2023-02-11T22:34:54.024Z,3.71
2023-02-11T22:37:20.713Z,3.74
2023-02-11T22:39:47.443Z,3.77
2023-02-11T22:42:14.057Z,3.84
2023-02-11T22:44:40.651Z,4.04
2023-02-11T22:47:07.214Z,3.79
2023-02-11T22:49:33.838Z,3.69
2023-02-11T22:52:00.539Z,3.80
2023-02-11T22:54:27.499Z,3.82
2023-02-11T22:56:54.166Z,3.69
2023-02-11T22:59:21.354Z,3.74
2023-02-11T23:01:49.102Z,3.65
2023-02-11T23:04:17.021Z,3.71
2023-02-11T23:06:43.989Z,3.68
2023-02-11T23:09:12.561Z,3.64
2023-02-11T23:11:40.492Z,3.69
2023-02-11T23:14:08.681Z,3.63
2023-02-11T23:16:35.394Z,3.64
2023-02-11T23:19:05.924Z,3.69
2023-02-11T23:21:35.201Z,3.72
2023-02-11T23:24:12.972Z,3.72
2023-02-11T23:26:40.904Z,3.64
2023-02-11T23:29:07.936Z,3.74
2023-02-11T23:31:37.949Z,3.76
2023-02-11T23:34:05.352Z,3.69
2023-02-11T23:36:32.507Z,3.69
2023-02-11T23:38:59.116Z,3.71
2023-02-11T23:41:25.855Z,3.70
2023-02-11T23:43:55.038Z,3.75
2023-02-11T23:46:23.404Z,3.78
2023-02-11T23:48:50.856Z,3.81
2023-02-11T23:51:18.481Z,3.86
2023-02-11T23:53:49.337Z,3.90
2023-02-11T23:56:20.027Z,3.84
2023-02-11T23:58:50.299Z,3.70
